createdAt,value
2019-02-14T00:01:21.344Z,9.70
2019-02-14T00:03:50.302Z,11.93
2019-02-14T00:06:19.345Z,11.88
2019-02-14T00:08:48.402Z,11.03
2019-02-14T00:11:17.379Z,10.85
2019-02-14T00:13:46.403Z,7.62
2019-02-14T00:16:15.371Z,10.63
2019-02-14T00:18:44.397Z,11.45
2019-02-14T00:21:13.366Z,11.38
2019-02-14T00:23:42.392Z,10.75
2019-02-14T00:26:11.417Z,9.98
2019-02-14T00:28:40.382Z,11.85
2019-02-14T00:31:09.392Z,9.75
2019-02-14T00:33:38.436Z,10.28
2019-02-14T00:36:07.486Z,8.33
2019-02-14T00:38:36.543Z,7.95
2019-02-14T00:41:05.504Z,8.63
2019-02-14T00:43:34.523Z,9.13
2019-02-14T00:46:03.518Z,11.43
2019-02-14T00:48:32.507Z,8.68
2019-02-14T00:51:01.533Z,9.30
2019-02-14T00:53:30.535Z,12.00
2019-02-14T00:55:59.592Z,7.67
2019-02-14T00:58:28.596Z,8.68
2019-02-14T01:00:57.590Z,8.50
2019-02-14T01:03:26.564Z,11.12
2019-02-14T01:05:55.638Z,8.68
2019-02-14T01:08:24.847Z,7.87
2019-02-14T01:10:53.863Z,10.45
2019-02-14T01:13:23.065Z,11.80
2019-02-14T01:15:52.297Z,9.30
2019-02-14T01:18:21.253Z,10.28
2019-02-14T01:20:50.367Z,11.30
2019-02-14T01:23:19.942Z,8.98
2019-02-14T01:25:48.879Z,8.78
2019-02-14T01:28:17.987Z,9.15
2019-02-14T01:30:46.972Z,9.78
2019-02-14T01:33:16.144Z,8.18
2019-02-14T01:35:45.236Z,10.58
2019-02-14T01:38:14.821Z,8.50
2019-02-14T01:40:43.766Z,8.50
2019-02-14T01:43:12.738Z,11.88
2019-02-14T01:45:41.723Z,9.73
2019-02-14T01:48:10.696Z,9.48
2019-02-14T01:50:39.803Z,8.50
2019-02-14T01:53:08.880Z,10.93
2019-02-14T01:55:37.902Z,10.00
2019-02-14T01:58:07.123Z,7.25
2019-02-14T02:00:36.113Z,7.37
2019-02-14T02:03:05.066Z,9.30
2019-02-14T02:05:34.038Z,7.83
2019-02-14T02:08:03.001Z,9.13
2019-02-14T02:10:31.957Z,8.70
2019-02-14T02:13:00.989Z,8.30
2019-02-14T02:15:29.958Z,7.08
2019-02-14T02:17:58.907Z,6.33
2019-02-14T02:20:33.229Z,7.03
2019-02-14T02:22:58.544Z,6.72
2019-02-14T02:25:27.584Z,10.28
2019-02-14T02:27:56.819Z,7.33
2019-02-14T02:30:25.858Z,7.33
2019-02-14T02:32:54.987Z,6.90
2019-02-14T02:35:24.028Z,6.47
2019-02-14T02:37:53.021Z,8.13
2019-02-14T02:40:21.974Z,6.85
2019-02-14T02:42:50.952Z,7.70
2019-02-14T02:45:19.970Z,8.78
2019-02-14T02:47:48.961Z,7.08
2019-02-14T02:50:17.986Z,8.88
2019-02-14T02:52:46.941Z,8.45
2019-02-14T02:55:15.907Z,8.13
2019-02-14T02:57:44.857Z,8.78
2019-02-14T03:00:17.496Z,8.68
2019-02-14T03:02:46.536Z,6.12
2019-02-14T03:05:16.144Z,7.72
2019-02-14T03:07:45.187Z,8.45
2019-02-14T03:10:14.434Z,7.30
2019-02-14T03:12:43.469Z,9.05
2019-02-14T03:15:14.897Z,7.28
2019-02-14T03:17:44.051Z,8.23
2019-02-14T03:20:13.478Z,8.93
2019-02-14T03:22:42.518Z,8.00
2019-02-14T03:25:19.648Z,6.35
2019-02-14T03:27:48.608Z,7.28
2019-02-14T03:30:17.754Z,6.25
2019-02-14T03:32:46.780Z,8.38
2019-02-14T03:35:15.816Z,7.35
2019-02-14T03:37:44.765Z,6.58
2019-02-14T03:40:14.860Z,7.60
2019-02-14T03:42:43.812Z,7.97
2019-02-14T03:45:17.893Z,9.03
2019-02-14T03:47:46.981Z,9.15
2019-02-14T03:50:16.002Z,9.33
2019-02-14T03:52:45.141Z,13.08
2019-02-14T03:55:14.113Z,13.53
2019-02-14T03:57:43.156Z,9.23
2019-02-14T04:00:14.848Z,16.75
2019-02-14T04:02:43.978Z,9.75
2019-02-14T04:05:13.093Z,12.40
2019-02-14T04:07:42.140Z,10.60
2019-02-14T04:10:15.402Z,6.58
2019-02-14T04:12:44.398Z,13.62
2019-02-14T04:15:15.490Z,7.80
2019-02-14T04:17:44.481Z,11.10
2019-02-14T04:20:13.859Z,12.50
2019-02-14T04:22:42.887Z,10.20
2019-02-14T04:25:11.934Z,12.47
2019-02-14T04:27:40.970Z,8.28
2019-02-14T04:30:12.265Z,6.90
2019-02-14T04:32:42.166Z,10.38
2019-02-14T04:35:11.204Z,8.33
2019-02-14T04:37:40.302Z,8.23
2019-02-14T04:40:13.498Z,8.45
2019-02-14T04:42:42.504Z,7.58
2019-02-14T04:45:12.995Z,10.68
2019-02-14T04:47:42.358Z,10.72
2019-02-14T04:50:12.005Z,8.38
2019-02-14T04:52:40.953Z,7.72
2019-02-14T04:55:12.628Z,9.23
2019-02-14T04:57:41.590Z,12.15
2019-02-14T05:00:12.719Z,11.70
2019-02-14T05:02:41.747Z,9.03
2019-02-14T05:05:11.413Z,10.75
2019-02-14T05:07:40.489Z,9.68
2019-02-14T05:10:12.897Z,9.60
2019-02-14T05:12:42.371Z,7.97
2019-02-14T05:15:11.759Z,10.53
2019-02-14T05:17:40.740Z,12.73
2019-02-14T05:20:11.547Z,11.90
2019-02-14T05:22:40.515Z,12.43
2019-02-14T05:25:10.087Z,12.43
2019-02-14T05:27:39.144Z,11.15
2019-02-14T05:30:13.797Z,9.60
2019-02-14T05:32:42.808Z,12.85
2019-02-14T05:35:11.855Z,8.18
2019-02-14T05:37:40.912Z,8.55
2019-02-14T05:40:11.740Z,10.58
2019-02-14T05:42:40.816Z,8.10
2019-02-14T05:45:13.765Z,8.03
2019-02-14T05:47:42.869Z,12.63
2019-02-14T05:50:13.620Z,8.13
2019-02-14T05:52:42.574Z,9.53
2019-02-14T05:55:12.468Z,7.75
2019-02-14T05:57:41.690Z,6.67
2019-02-14T06:00:16.329Z,11.97
2019-02-14T06:02:45.375Z,8.50
2019-02-14T06:05:14.517Z,8.45
2019-02-14T06:07:43.819Z,7.53
2019-02-14T06:10:12.901Z,6.50
2019-02-14T06:12:41.862Z,9.40
2019-02-14T06:15:13.016Z,7.75
2019-02-14T06:17:42.217Z,8.68
2019-02-14T06:20:12.590Z,14.93
2019-02-14T06:22:41.589Z,13.10
2019-02-14T06:25:12.132Z,14.60
2019-02-14T06:27:41.174Z,11.88
2019-02-14T06:30:13.209Z,18.62
2019-02-14T06:32:42.291Z,22.30
2019-02-14T06:35:12.184Z,15.90
2019-02-14T06:37:42.573Z,14.05
2019-02-14T06:40:13.155Z,15.70
2019-02-14T06:42:42.196Z,18.95
2019-02-14T06:45:13.618Z,22.90
2019-02-14T06:47:42.591Z,13.60
2019-02-14T06:50:11.559Z,17.20
2019-02-14T06:52:40.569Z,17.62
2019-02-14T06:55:10.146Z,17.15
2019-02-14T06:57:39.177Z,24.55
2019-02-14T07:00:14.284Z,26.55
2019-02-14T07:02:43.867Z,29.35
2019-02-14T07:05:12.951Z,25.20
2019-02-14T07:07:41.995Z,37.83
2019-02-14T07:10:17.082Z,21.85
2019-02-14T07:12:43.166Z,28.70
2019-02-14T07:15:15.977Z,31.55
2019-02-14T07:17:45.015Z,28.30
2019-02-14T07:20:16.124Z,26.60
2019-02-14T07:22:45.374Z,30.80
2019-02-14T07:25:14.379Z,24.65
2019-02-14T07:27:43.476Z,27.65
2019-02-14T07:30:15.523Z,29.82
2019-02-14T07:32:44.590Z,33.08
2019-02-14T07:35:13.621Z,24.43
2019-02-14T07:37:42.631Z,23.98
2019-02-14T07:40:13.533Z,33.18
2019-02-14T07:42:42.568Z,43.30
2019-02-14T07:45:16.529Z,36.08
2019-02-14T07:47:45.903Z,28.17
2019-02-14T07:50:14.883Z,29.07
2019-02-14T07:52:43.958Z,23.75
2019-02-14T07:55:14.040Z,25.20
2019-02-14T07:57:43.299Z,32.42
2019-02-14T08:00:19.726Z,25.88
2019-02-14T08:02:48.684Z,30.60
2019-02-14T08:05:17.644Z,24.25
2019-02-14T08:07:46.624Z,25.17
2019-02-14T08:10:17.823Z,27.25
2019-02-14T08:12:46.848Z,25.90
2019-02-14T08:15:15.804Z,22.50
2019-02-14T08:17:44.801Z,17.95
2019-02-14T08:20:21.160Z,19.62
2019-02-14T08:22:50.215Z,17.90
2019-02-14T08:25:19.759Z,20.72
2019-02-14T08:27:48.798Z,24.05
2019-02-14T08:30:21.417Z,19.15
2019-02-14T08:32:50.423Z,17.10
2019-02-14T08:35:19.383Z,17.85
2019-02-14T08:37:48.357Z,16.10
2019-02-14T08:40:25.987Z,17.12
2019-02-14T08:42:55.059Z,19.45
2019-02-14T08:45:24.033Z,13.48
2019-02-14T08:47:53.076Z,19.90
2019-02-14T08:50:22.107Z,19.02
2019-02-14T08:52:51.094Z,11.25
2019-02-14T08:55:20.110Z,14.98
2019-02-14T08:57:49.077Z,15.98
2019-02-14T09:00:18.126Z,19.77
2019-02-14T09:02:47.171Z,14.95
2019-02-14T09:05:16.147Z,16.00
2019-02-14T09:07:53.905Z,14.25
2019-02-14T09:10:17.003Z,13.18
2019-02-14T09:12:46.058Z,16.15
2019-02-14T09:15:15.718Z,14.83
2019-02-14T09:17:44.795Z,17.87
2019-02-14T09:20:19.518Z,18.05
2019-02-14T09:22:48.567Z,17.77
2019-02-14T09:25:17.597Z,15.60
2019-02-14T09:27:46.567Z,13.25
2019-02-14T09:30:15.816Z,12.43
2019-02-14T09:32:44.769Z,18.75
2019-02-14T09:35:13.735Z,17.07
2019-02-14T09:37:42.753Z,20.00
2019-02-14T09:40:14.555Z,21.62
2019-02-14T09:42:43.556Z,17.05
2019-02-14T09:45:14.255Z,20.55
2019-02-14T09:47:43.290Z,16.17
2019-02-14T09:50:15.744Z,18.95
2019-02-14T09:52:44.739Z,16.73
2019-02-14T09:55:14.446Z,21.62
2019-02-14T09:57:43.658Z,17.42
2019-02-14T10:00:19.587Z,13.03
2019-02-14T10:02:48.660Z,18.45
2019-02-14T10:05:17.694Z,13.70
2019-02-14T10:07:46.722Z,24.55
2019-02-14T10:10:23.295Z,16.48
2019-02-14T10:12:52.338Z,16.82
2019-02-14T10:15:21.307Z,17.48
2019-02-14T10:17:50.272Z,15.28
2019-02-14T10:20:19.359Z,14.30
2019-02-14T10:22:48.335Z,22.40
2019-02-14T10:25:17.304Z,19.07
2019-02-14T10:27:46.333Z,15.38
2019-02-14T10:30:17.935Z,17.42
2019-02-14T10:32:46.890Z,13.48
2019-02-14T10:35:15.945Z,12.37
2019-02-14T10:37:44.981Z,12.45
2019-02-14T10:40:15.610Z,13.88
2019-02-14T10:42:44.661Z,12.15
2019-02-14T10:45:15.964Z,14.30
2019-02-14T10:47:45.080Z,10.32
2019-02-14T10:50:14.046Z,11.48
2019-02-14T10:52:43.022Z,14.28
2019-02-14T10:55:14.110Z,14.53
2019-02-14T10:57:43.217Z,10.45
2019-02-14T11:00:23.821Z,9.43
2019-02-14T11:02:52.955Z,7.60
2019-02-14T11:05:22.039Z,12.53
2019-02-14T11:07:51.134Z,9.00
2019-02-14T11:10:20.106Z,13.78
2019-02-14T11:12:49.095Z,10.18
2019-02-14T11:15:23.875Z,9.03
2019-02-14T11:17:52.848Z,9.43
2019-02-14T11:20:22.054Z,8.43
2019-02-14T11:22:51.023Z,10.95
2019-02-14T11:25:26.213Z,12.80
2019-02-14T11:27:55.237Z,8.60
2019-02-14T11:30:24.568Z,7.47
2019-02-14T11:32:53.564Z,10.50
2019-02-14T11:35:22.605Z,12.35
2019-02-14T11:37:51.583Z,8.60
2019-02-14T11:40:20.947Z,10.18
2019-02-14T11:42:49.904Z,12.80
2019-02-14T11:45:23.825Z,9.68
2019-02-14T11:47:52.816Z,7.65
2019-02-14T11:50:21.930Z,11.48
2019-02-14T11:52:51.017Z,8.28
2019-02-14T11:55:20.055Z,8.63
2019-02-14T11:57:49.039Z,6.78
2019-02-14T12:00:24.267Z,9.08
2019-02-14T12:02:55.922Z,7.62
2019-02-14T12:05:23.969Z,9.45
2019-02-14T12:07:52.966Z,9.63
2019-02-14T12:10:21.994Z,11.05
2019-02-14T12:12:50.956Z,10.50
2019-02-14T12:15:19.954Z,10.80
2019-02-14T12:17:48.987Z,10.45
2019-02-14T12:20:18.217Z,8.03
2019-02-14T12:22:47.457Z,9.85
2019-02-14T12:25:23.004Z,9.33
2019-02-14T12:27:52.091Z,12.63
2019-02-14T12:30:21.209Z,7.97
2019-02-14T12:32:50.233Z,9.95
2019-02-14T12:35:19.251Z,13.65
2019-02-14T12:37:48.219Z,13.22
2019-02-14T12:40:17.199Z,12.98
2019-02-14T12:42:46.178Z,17.45
2019-02-14T12:45:20.540Z,14.65
2019-02-14T12:47:48.769Z,16.25
2019-02-14T12:50:17.874Z,19.98
2019-02-14T12:52:46.881Z,19.40
2019-02-14T12:55:15.914Z,20.35
2019-02-14T12:57:44.902Z,18.07
2019-02-14T13:00:19.656Z,19.62
2019-02-14T13:02:48.759Z,22.13
2019-02-14T13:05:17.856Z,25.40
2019-02-14T13:07:46.978Z,21.57
2019-02-14T13:10:17.619Z,19.25
2019-02-14T13:12:46.666Z,20.65
2019-02-14T13:15:21.526Z,20.20
2019-02-14T13:17:50.566Z,16.25
2019-02-14T13:20:19.941Z,14.25
2019-02-14T13:22:48.960Z,18.52
2019-02-14T13:25:20.632Z,15.35
2019-02-14T13:27:49.599Z,16.32
2019-02-14T13:30:21.502Z,11.90
2019-02-14T13:32:50.481Z,15.53
2019-02-14T13:35:19.512Z,13.50
2019-02-14T13:37:48.483Z,10.50
2019-02-14T13:40:17.746Z,13.10
2019-02-14T13:42:46.768Z,12.23
2019-02-14T13:45:24.100Z,14.05
2019-02-14T13:47:53.151Z,14.40
2019-02-14T13:50:22.199Z,14.55
2019-02-14T13:52:51.275Z,11.05
2019-02-14T13:55:20.379Z,11.28
2019-02-14T13:57:49.359Z,12.07
2019-02-14T14:00:24.313Z,12.65
2019-02-14T14:02:53.272Z,11.20
2019-02-14T14:05:22.514Z,9.43
2019-02-14T14:07:51.723Z,11.00
2019-02-14T14:10:20.900Z,8.90
2019-02-14T14:12:49.859Z,11.55
2019-02-14T14:15:18.916Z,8.83
2019-02-14T14:17:48.090Z,12.20
2019-02-14T14:20:17.064Z,16.05
2019-02-14T14:22:46.094Z,10.08
2019-02-14T14:25:15.261Z,14.13
2019-02-14T14:27:44.319Z,11.03
2019-02-14T14:30:14.494Z,12.18
2019-02-14T14:32:43.757Z,12.80
2019-02-14T14:35:13.173Z,13.65
2019-02-14T14:37:42.230Z,12.88
2019-02-14T14:40:16.758Z,12.07
2019-02-14T14:42:53.458Z,11.22
2019-02-14T14:45:33.112Z,10.88
2019-02-14T14:48:02.087Z,11.18
2019-02-14T14:50:31.037Z,10.90
2019-02-14T14:53:00.041Z,10.68
2019-02-14T14:55:29.010Z,10.95
2019-02-14T14:57:58.084Z,10.18
2019-02-14T15:00:27.126Z,10.05
2019-02-14T15:02:56.172Z,9.85
2019-02-14T15:05:25.196Z,14.35
2019-02-14T15:07:54.260Z,10.75
2019-02-14T15:10:23.311Z,8.18
2019-02-14T15:12:52.329Z,11.30
2019-02-14T15:15:21.337Z,9.05
2019-02-14T15:17:50.307Z,8.30
2019-02-14T15:20:19.386Z,8.35
2019-02-14T15:22:48.346Z,9.83
2019-02-14T15:25:17.300Z,9.80
2019-02-14T15:27:46.408Z,8.00
2019-02-14T15:30:15.404Z,8.38
2019-02-14T15:32:44.401Z,9.90
2019-02-14T15:35:13.522Z,9.73
2019-02-14T15:37:44.418Z,7.78
2019-02-14T15:40:13.236Z,9.13
2019-02-14T15:42:42.220Z,14.00
2019-02-14T15:45:11.196Z,10.48
2019-02-14T15:47:40.187Z,12.88
2019-02-14T15:50:09.435Z,14.28
2019-02-14T15:52:38.478Z,8.08
2019-02-14T15:55:08.091Z,11.30
2019-02-14T15:57:37.115Z,10.30
2019-02-14T16:00:12.413Z,12.10
2019-02-14T16:02:41.387Z,9.23
2019-02-14T16:05:10.429Z,10.32
2019-02-14T16:07:41.310Z,11.80
2019-02-14T16:10:18.118Z,13.03
2019-02-14T16:12:43.513Z,16.07
2019-02-14T16:15:12.329Z,13.98
2019-02-14T16:17:41.418Z,16.25
2019-02-14T16:20:10.825Z,10.30
2019-02-14T16:22:41.832Z,14.45
2019-02-14T16:25:10.778Z,9.73
2019-02-14T16:27:39.761Z,9.00
2019-02-14T16:30:11.066Z,13.70
2019-02-14T16:32:40.036Z,10.55
2019-02-14T16:35:09.317Z,12.58
2019-02-14T16:37:38.358Z,12.25
2019-02-14T16:40:09.834Z,12.35
2019-02-14T16:42:38.875Z,12.23
2019-02-14T16:45:09.040Z,10.55
2019-02-14T16:47:37.997Z,11.80
2019-02-14T16:50:09.219Z,14.15
2019-02-14T16:52:38.191Z,10.68
2019-02-14T16:55:07.598Z,13.05
2019-02-14T16:57:36.567Z,15.38
2019-02-14T17:00:11.645Z,11.28
2019-02-14T17:02:40.606Z,14.38
2019-02-14T17:05:09.748Z,12.28
2019-02-14T17:07:38.793Z,13.00
2019-02-14T17:10:10.706Z,19.32
2019-02-14T17:12:39.668Z,18.30
2019-02-14T17:15:10.176Z,16.05
2019-02-14T17:17:39.150Z,14.47
2019-02-14T17:20:10.646Z,15.60
2019-02-14T17:22:39.705Z,16.15
2019-02-14T17:25:08.973Z,18.90
2019-02-14T17:27:37.949Z,16.95
2019-02-14T17:30:08.856Z,17.92
2019-02-14T17:32:37.941Z,16.02
2019-02-14T17:35:07.719Z,14.05
2019-02-14T17:37:36.767Z,14.40
2019-02-14T17:40:08.448Z,13.75
2019-02-14T17:42:37.414Z,12.03
2019-02-14T17:45:08.935Z,10.08
2019-02-14T17:47:38.026Z,13.40
2019-02-14T17:50:08.722Z,11.78
2019-02-14T17:52:37.764Z,9.65
2019-02-14T17:55:09.171Z,11.63
2019-02-14T17:57:38.265Z,13.90
2019-02-14T18:00:12.431Z,13.70
2019-02-14T18:02:41.516Z,13.80
2019-02-14T18:05:10.757Z,13.10
2019-02-14T18:07:39.707Z,12.10
2019-02-14T18:10:11.841Z,13.10
2019-02-14T18:12:41.554Z,21.55
2019-02-14T18:15:13.624Z,17.80
2019-02-14T18:17:42.681Z,14.13
2019-02-14T18:20:12.105Z,15.13
2019-02-14T18:22:41.088Z,16.57
2019-02-14T18:25:13.127Z,19.50
2019-02-14T18:27:42.978Z,15.10
2019-02-14T18:30:12.841Z,13.65
2019-02-14T18:32:41.841Z,15.63
2019-02-14T18:35:12.685Z,14.73
2019-02-14T18:37:41.638Z,15.45
2019-02-14T18:40:11.689Z,17.27
2019-02-14T18:42:43.765Z,18.92
2019-02-14T18:45:13.923Z,16.70
2019-02-14T18:47:43.153Z,18.77
2019-02-14T18:50:13.459Z,15.88
2019-02-14T18:52:42.482Z,12.93
2019-02-14T18:55:12.132Z,16.15
2019-02-14T18:57:41.104Z,15.88
2019-02-14T19:00:18.422Z,15.70
2019-02-14T19:02:47.428Z,16.48
2019-02-14T19:05:16.437Z,17.95
2019-02-14T19:07:45.439Z,14.20
2019-02-14T19:10:16.114Z,13.50
2019-02-14T19:12:45.159Z,13.45
2019-02-14T19:15:14.645Z,11.85
2019-02-14T19:17:43.946Z,14.80
2019-02-14T19:20:13.673Z,17.87
2019-02-14T19:22:43.259Z,13.30
2019-02-14T19:25:12.505Z,17.20
2019-02-14T19:27:41.548Z,10.85
2019-02-14T19:30:12.059Z,14.03
2019-02-14T19:32:41.102Z,13.88
2019-02-14T19:35:10.108Z,10.55
2019-02-14T19:37:39.079Z,13.43
2019-02-14T19:40:09.578Z,13.28
2019-02-14T19:42:38.599Z,11.75
2019-02-14T19:45:11.957Z,12.30
2019-02-14T19:47:40.981Z,14.93
2019-02-14T19:50:12.121Z,9.80
2019-02-14T19:52:41.154Z,9.18
2019-02-14T19:55:10.384Z,15.95
2019-02-14T19:57:39.366Z,11.70
2019-02-14T20:00:14.242Z,17.50
2019-02-14T20:02:43.394Z,9.75
2019-02-14T20:05:12.868Z,12.45
2019-02-14T20:07:41.923Z,12.58
2019-02-14T20:10:12.646Z,13.10
2019-02-14T20:12:41.688Z,11.53
2019-02-14T20:15:13.369Z,11.78
2019-02-14T20:17:42.456Z,12.58
2019-02-14T20:20:11.418Z,12.35
2019-02-14T20:22:40.488Z,12.73
2019-02-14T20:25:15.563Z,11.85
2019-02-14T20:27:45.079Z,11.83
2019-02-14T20:30:14.099Z,8.55
2019-02-14T20:32:43.168Z,8.40
2019-02-14T20:35:12.139Z,8.70
2019-02-14T20:37:41.255Z,10.88
2019-02-14T20:40:11.076Z,10.63
2019-02-14T20:42:40.098Z,9.78
2019-02-14T20:45:15.286Z,12.78
2019-02-14T20:47:44.426Z,9.68
2019-02-14T20:50:14.971Z,9.08
2019-02-14T20:52:44.015Z,9.35
2019-02-14T20:55:21.814Z,8.90
2019-02-14T20:57:50.877Z,9.05
2019-02-14T21:00:30.384Z,8.33
2019-02-14T21:02:59.553Z,9.18
2019-02-14T21:05:28.749Z,11.28
2019-02-14T21:07:57.861Z,8.68
2019-02-14T21:10:26.849Z,10.80
2019-02-14T21:12:55.944Z,7.50
2019-02-14T21:15:25.381Z,8.05
2019-02-14T21:17:54.418Z,13.68
2019-02-14T21:20:23.497Z,10.98
2019-02-14T21:22:52.486Z,15.20
2019-02-14T21:25:23.425Z,13.65
2019-02-14T21:27:52.261Z,10.65
2019-02-14T21:30:21.318Z,13.32
2019-02-14T21:32:50.420Z,11.90
2019-02-14T21:35:19.501Z,11.83
2019-02-14T21:37:48.602Z,14.15
2019-02-14T21:40:19.446Z,13.90
2019-02-14T21:42:48.556Z,11.78
2019-02-14T21:45:18.438Z,10.68
2019-02-14T21:47:47.807Z,8.53
2019-02-14T21:50:16.818Z,10.23
2019-02-14T21:52:46.178Z,12.63
2019-02-14T21:55:16.829Z,10.35
2019-02-14T21:57:46.772Z,8.45
2019-02-14T22:00:27.078Z,10.93
2019-02-14T22:02:56.284Z,9.23
2019-02-14T22:05:26.503Z,15.03
2019-02-14T22:07:56.205Z,10.05
2019-02-14T22:10:25.387Z,9.40
2019-02-14T22:12:54.539Z,8.18
2019-02-14T22:15:28.676Z,11.90
2019-02-14T22:17:57.806Z,10.35
2019-02-14T22:20:26.829Z,7.85
2019-02-14T22:22:55.813Z,11.93
2019-02-14T22:25:24.807Z,10.08
2019-02-14T22:27:53.776Z,10.82
2019-02-14T22:30:22.746Z,9.00
2019-02-14T22:32:51.707Z,10.63
2019-02-14T22:35:20.770Z,9.03
2019-02-14T22:37:49.715Z,8.33
2019-02-14T22:40:18.673Z,10.55
2019-02-14T22:42:47.945Z,9.90
2019-02-14T22:45:17.278Z,9.75
2019-02-14T22:47:46.307Z,8.10
2019-02-14T22:50:15.265Z,7.22
2019-02-14T22:52:44.374Z,9.95
2019-02-14T22:55:13.905Z,9.38
2019-02-14T22:57:43.115Z,9.50
2019-02-14T23:00:31.784Z,8.23
2019-02-14T23:03:00.742Z,8.50
2019-02-14T23:05:30.023Z,8.73
2019-02-14T23:07:58.992Z,9.33
2019-02-14T23:10:28.049Z,7.60
2019-02-14T23:12:57.137Z,8.33
2019-02-14T23:15:26.147Z,8.80
2019-02-14T23:17:55.111Z,8.48
2019-02-14T23:20:24.221Z,7.72
2019-02-14T23:22:53.194Z,9.75
2019-02-14T23:25:22.351Z,7.62
2019-02-14T23:27:51.382Z,7.75
2019-02-14T23:30:20.440Z,8.20
2019-02-14T23:32:49.421Z,9.40
2019-02-14T23:35:18.380Z,7.17
2019-02-14T23:37:47.336Z,10.25
2019-02-14T23:40:16.361Z,9.03
2019-02-14T23:42:45.543Z,9.98
2019-02-14T23:45:17.953Z,7.97
2019-02-14T23:47:47.996Z,9.23
2019-02-14T23:50:17.033Z,9.83
2019-02-14T23:52:46.062Z,8.65
2019-02-14T23:55:15.032Z,9.88
2019-02-14T23:57:44.567Z,8.33
